Cape Dorset, Canada
Current Conditions -  °F | °C
As of 9:53 PM on Wednesday 26 Nov 2014 (Local Time) from CYTE Reporting Station
Light Snow Light Snow  
Wind Chill: -19°   Ceiling: 2200
Heat Index: -4°   Visibility: 1.7mi
Dew Point: -8°   Wind: 8mph
Humidity: 85%   Direction: 290°WNW
Pressure: 29.67"   Gusts: NA
Location:  64.23°N, 76.54°W
Report Text: CYTE 270253Z AUTO 29007KT 1 3/4SM -SN FEW010 SCT015 OVC022 M20/M22 A2967 RMK SLP053
Loading
Personal Weather Stations






























Interactive Weather Map New forecast layout! Learn more

10-Day Weather Forecast

Advertisements
Track Severe Weather on mobile